createdAt,value
2023-03-18T00:00:21.275Z,3.28
2023-03-18T00:02:49.581Z,2.80
2023-03-18T00:05:17.388Z,4.18
2023-03-18T00:07:45.558Z,3.85
2023-03-18T00:10:13.058Z,3.42
2023-03-18T00:12:41.482Z,4.10
2023-03-18T00:15:11.142Z,3.90
2023-03-18T00:17:40.570Z,4.22
2023-03-18T00:20:09.688Z,3.00
2023-03-18T00:22:42.625Z,3.58
2023-03-18T00:25:12.070Z,4.70
2023-03-18T00:27:40.133Z,3.95
2023-03-18T00:30:08.560Z,4.28
2023-03-18T00:32:35.919Z,4.65
2023-03-18T00:35:08.044Z,3.08
2023-03-18T00:37:36.921Z,3.83
2023-03-18T00:40:10.412Z,4.03
2023-03-18T00:42:40.336Z,3.60
2023-03-18T00:45:11.298Z,3.90
2023-03-18T00:47:38.744Z,4.03
2023-03-18T00:50:08.606Z,3.63
2023-03-18T00:52:36.831Z,4.45
2023-03-18T00:55:07.860Z,4.05
2023-03-18T00:57:35.593Z,3.58
2023-03-18T01:00:03.455Z,3.92
2023-03-18T01:02:31.073Z,3.90
2023-03-18T01:04:58.337Z,4.28
2023-03-18T01:07:25.858Z,4.78
2023-03-18T01:09:53.027Z,4.20
2023-03-18T01:12:23.467Z,4.93
2023-03-18T01:14:53.788Z,5.15
2023-03-18T01:17:21.152Z,4.22
2023-03-18T01:19:49.017Z,3.88
2023-03-18T01:22:16.511Z,4.82
2023-03-18T01:24:45.063Z,4.32
2023-03-18T01:27:12.781Z,3.95
2023-03-18T01:29:41.032Z,4.40
2023-03-18T01:32:09.161Z,4.60
2023-03-18T01:34:36.283Z,4.50
2023-03-18T01:37:04.056Z,4.07
2023-03-18T01:39:31.362Z,4.35
2023-03-18T01:42:06.012Z,4.88
2023-03-18T01:44:33.927Z,5.40
2023-03-18T01:47:05.147Z,4.82
2023-03-18T01:49:36.766Z,5.57
2023-03-18T01:52:13.124Z,4.50
2023-03-18T01:54:51.750Z,4.38
2023-03-18T01:57:20.666Z,4.13
2023-03-18T01:59:50.912Z,5.43
2023-03-18T02:02:20.041Z,4.55
2023-03-18T02:04:54.046Z,4.45
2023-03-18T02:07:28.163Z,5.38
2023-03-18T02:09:57.792Z,3.90
2023-03-18T02:12:38.901Z,4.28
2023-03-18T02:15:16.773Z,3.97
2023-03-18T02:17:48.869Z,4.07
2023-03-18T02:20:41.112Z,4.85
2023-03-18T02:23:55.268Z,4.22
2023-03-18T02:26:25.454Z,5.32
2023-03-18T02:28:57.549Z,4.25
2023-03-18T02:31:25.368Z,5.13
2023-03-18T02:33:52.766Z,4.57
2023-03-18T02:36:24.268Z,4.63
2023-03-18T02:38:51.547Z,4.70
2023-03-18T02:41:22.753Z,5.10
2023-03-18T02:43:51.206Z,3.50
2023-03-18T02:46:32.127Z,5.07
2023-03-18T02:49:01.743Z,4.15
2023-03-18T02:51:29.676Z,3.88
2023-03-18T02:54:02.112Z,5.75
2023-03-18T02:56:29.813Z,4.60
2023-03-18T02:58:58.258Z,4.72
2023-03-18T03:01:25.936Z,4.05
2023-03-18T03:03:54.408Z,5.18
2023-03-18T03:06:21.794Z,4.43
2023-03-18T03:08:49.555Z,4.63
2023-03-18T03:11:17.405Z,4.90
2023-03-18T03:13:47.802Z,4.05
2023-03-18T03:16:17.220Z,5.10
2023-03-18T03:18:44.999Z,5.53
2023-03-18T03:21:13.600Z,5.82
2023-03-18T03:23:41.833Z,5.38
2023-03-18T03:26:09.310Z,5.07
2023-03-18T03:28:36.606Z,4.35
2023-03-18T03:31:04.086Z,4.63
2023-03-18T03:33:31.714Z,4.78
2023-03-18T03:35:59.047Z,5.20
2023-03-18T03:38:27.135Z,5.07
2023-03-18T03:40:54.520Z,5.13
2023-03-18T03:43:21.965Z,4.80
2023-03-18T03:45:49.206Z,5.65
2023-03-18T03:48:16.802Z,3.83
2023-03-18T03:50:44.084Z,6.22
2023-03-18T03:53:11.866Z,5.00
2023-03-18T03:55:39.502Z,5.50
2023-03-18T03:58:06.698Z,5.05
2023-03-18T04:00:34.137Z,5.85
2023-03-18T04:03:01.774Z,5.07
2023-03-18T04:05:30.003Z,5.03
2023-03-18T04:08:00.386Z,5.18
2023-03-18T04:10:28.458Z,5.47
2023-03-18T04:12:56.495Z,4.45
2023-03-18T04:15:23.943Z,6.45
2023-03-18T04:17:51.609Z,5.20
2023-03-18T04:20:19.640Z,4.97
2023-03-18T04:22:47.338Z,4.45
2023-03-18T04:25:17.384Z,5.47
2023-03-18T04:27:44.869Z,5.03
2023-03-18T04:30:13.799Z,4.80
2023-03-18T04:32:41.198Z,5.82
2023-03-18T04:35:09.781Z,4.90
2023-03-18T04:37:37.721Z,5.30
2023-03-18T04:40:06.694Z,4.60
2023-03-18T04:42:34.213Z,4.57
2023-03-18T04:45:02.294Z,4.38
2023-03-18T04:47:29.562Z,3.95
2023-03-18T04:49:56.772Z,6.40
2023-03-18T04:52:25.192Z,4.75
2023-03-18T04:54:52.931Z,5.28
2023-03-18T04:57:20.268Z,4.30
2023-03-18T04:59:50.085Z,4.60
2023-03-18T05:02:17.863Z,4.28
2023-03-18T05:04:45.770Z,4.20
2023-03-18T05:07:17.397Z,4.47
2023-03-18T05:09:44.922Z,5.20
2023-03-18T05:12:15.504Z,5.10
2023-03-18T05:14:44.015Z,5.40
2023-03-18T05:17:16.123Z,4.80
2023-03-18T05:19:48.972Z,5.57
2023-03-18T05:22:19.395Z,4.85
2023-03-18T05:24:47.275Z,4.68
2023-03-18T05:27:17.711Z,4.35
2023-03-18T05:29:45.291Z,5.10
2023-03-18T05:32:14.961Z,5.32
2023-03-18T05:34:43.239Z,4.82
2023-03-18T05:37:13.258Z,4.65
2023-03-18T05:39:40.622Z,5.45
2023-03-18T05:42:09.675Z,5.20
2023-03-18T05:44:39.191Z,4.63
2023-03-18T05:47:07.034Z,5.65
2023-03-18T05:49:34.723Z,5.53
2023-03-18T05:52:03.017Z,6.07
2023-03-18T05:54:30.318Z,6.38
2023-03-18T05:56:58.476Z,5.53
2023-03-18T05:59:25.875Z,3.97
2023-03-18T06:01:54.239Z,4.57
2023-03-18T06:04:21.698Z,5.78
2023-03-18T06:06:50.624Z,4.90
2023-03-18T06:09:17.895Z,4.72
2023-03-18T06:11:45.746Z,4.60
2023-03-18T06:14:13.717Z,5.13
2023-03-18T06:16:42.317Z,5.57
2023-03-18T06:19:12.195Z,5.38
2023-03-18T06:21:42.624Z,4.72
2023-03-18T06:24:10.086Z,4.28
2023-03-18T06:26:37.518Z,4.38
2023-03-18T06:29:05.488Z,6.00
2023-03-18T06:31:33.002Z,4.45
2023-03-18T06:34:01.468Z,4.93
2023-03-18T06:36:29.220Z,5.40
2023-03-18T06:38:56.733Z,6.10
2023-03-18T06:41:24.336Z,4.53
2023-03-18T06:43:52.418Z,5.60
2023-03-18T06:46:20.271Z,4.55
2023-03-18T06:48:49.098Z,5.30
2023-03-18T06:51:16.250Z,6.10
2023-03-18T06:53:43.794Z,6.15
2023-03-18T06:56:13.641Z,5.43
2023-03-18T06:58:41.289Z,5.97
2023-03-18T07:01:08.992Z,6.10
2023-03-18T07:03:36.301Z,6.18
2023-03-18T07:06:04.741Z,7.25
2023-03-18T07:08:32.594Z,6.35
2023-03-18T07:11:01.183Z,6.65
2023-03-18T07:13:29.107Z,7.40
2023-03-18T07:16:00.811Z,6.28
2023-03-18T07:18:28.672Z,9.52
2023-03-18T07:20:55.989Z,8.07
2023-03-18T07:23:23.414Z,7.13
2023-03-18T07:25:50.757Z,8.60
2023-03-18T07:28:18.356Z,7.68
2023-03-18T07:30:45.925Z,7.20
2023-03-18T07:33:13.652Z,8.63
2023-03-18T07:35:42.188Z,7.93
2023-03-18T07:38:10.318Z,9.65
2023-03-18T07:40:38.285Z,8.50
2023-03-18T07:43:06.803Z,9.25
2023-03-18T07:45:35.254Z,8.13
2023-03-18T07:48:02.375Z,9.52
2023-03-18T07:50:29.676Z,8.10
2023-03-18T07:52:57.353Z,10.40
2023-03-18T07:55:24.619Z,9.32
2023-03-18T07:57:51.948Z,11.18
2023-03-18T08:00:19.931Z,9.57
2023-03-18T08:02:47.319Z,10.27
2023-03-18T08:05:15.079Z,9.45
2023-03-18T08:07:42.983Z,9.25
2023-03-18T08:10:11.749Z,10.75
2023-03-18T08:12:52.257Z,10.25
2023-03-18T08:15:22.558Z,8.43
2023-03-18T08:17:50.921Z,9.35
2023-03-18T08:20:18.447Z,10.18
2023-03-18T08:22:46.180Z,8.23
2023-03-18T08:25:13.911Z,8.82
2023-03-18T08:27:41.293Z,8.48
2023-03-18T08:30:09.785Z,8.13
2023-03-18T08:32:37.794Z,7.28
2023-03-18T08:35:05.596Z,8.30
2023-03-18T08:37:32.934Z,8.18
2023-03-18T08:40:00.739Z,7.93
2023-03-18T08:42:28.200Z,9.90
2023-03-18T08:44:55.818Z,7.93
2023-03-18T08:47:25.435Z,7.10
2023-03-18T08:49:52.550Z,8.35
2023-03-18T08:52:20.262Z,10.80
2023-03-18T08:54:48.104Z,9.07
2023-03-18T08:57:16.346Z,10.77
2023-03-18T08:59:43.793Z,9.57
2023-03-18T09:02:17.441Z,9.48
2023-03-18T09:04:45.617Z,9.95
2023-03-18T09:07:13.813Z,9.02
2023-03-18T09:09:44.107Z,10.82
2023-03-18T09:12:12.899Z,7.45
2023-03-18T09:14:41.172Z,8.95
2023-03-18T09:17:09.193Z,8.43
2023-03-18T09:19:37.687Z,7.55
2023-03-18T09:22:05.446Z,8.80
2023-03-18T09:24:33.086Z,7.47
2023-03-18T09:27:00.363Z,8.50
2023-03-18T09:29:27.900Z,8.30
2023-03-18T09:31:55.829Z,8.48
2023-03-18T09:34:23.655Z,9.50
2023-03-18T09:36:53.945Z,8.77
2023-03-18T09:39:22.316Z,8.45
2023-03-18T09:42:21.750Z,8.57
2023-03-18T09:45:01.149Z,8.93
2023-03-18T09:47:54.156Z,8.77
2023-03-18T09:50:50.481Z,8.70
2023-03-18T09:53:27.947Z,9.60
2023-03-18T09:55:57.977Z,8.40
2023-03-18T09:58:28.344Z,7.18
2023-03-18T10:01:02.244Z,8.65
2023-03-18T10:03:48.689Z,8.25
2023-03-18T10:06:24.317Z,6.15
2023-03-18T10:09:10.587Z,5.55
2023-03-18T10:11:50.387Z,5.57
2023-03-18T10:15:00.890Z,6.60
2023-03-18T10:17:44.353Z,5.30
2023-03-18T10:20:27.684Z,5.70
2023-03-18T10:23:11.307Z,6.00
2023-03-18T10:25:49.014Z,5.38
2023-03-18T10:28:44.463Z,6.13
2023-03-18T10:31:22.664Z,6.88
2023-03-18T10:34:04.150Z,6.45
2023-03-18T10:37:34.660Z,5.80
2023-03-18T10:40:02.795Z,7.20
2023-03-18T10:42:33.454Z,6.82
2023-03-18T10:45:23.793Z,6.03
2023-03-18T10:48:11.961Z,6.32
2023-03-18T10:51:20.986Z,5.65
2023-03-18T10:54:33.044Z,7.30
2023-03-18T10:57:00.706Z,5.20
2023-03-18T10:59:30.507Z,4.97
2023-03-18T11:02:13.346Z,5.15
2023-03-18T11:05:05.009Z,5.70
2023-03-18T11:07:33.689Z,5.95
2023-03-18T11:10:26.303Z,5.93
2023-03-18T11:13:00.396Z,5.53
2023-03-18T11:15:27.685Z,6.10
2023-03-18T11:18:00.569Z,5.47
2023-03-18T11:20:44.268Z,6.28
2023-03-18T11:23:56.734Z,5.68
2023-03-18T11:26:29.537Z,6.07
2023-03-18T11:29:10.702Z,5.20
2023-03-18T11:31:58.550Z,5.15
2023-03-18T11:34:28.367Z,5.90
2023-03-18T11:37:05.229Z,4.97
2023-03-18T11:39:37.801Z,5.47
2023-03-18T11:42:22.229Z,5.88
2023-03-18T11:44:55.582Z,7.40
2023-03-18T11:47:28.325Z,7.03
2023-03-18T11:49:56.314Z,5.78
2023-03-18T11:52:47.112Z,6.57
2023-03-18T11:55:19.166Z,5.50
2023-03-18T11:58:09.325Z,6.50
2023-03-18T12:01:08.949Z,6.60
2023-03-18T12:03:52.955Z,6.00
2023-03-18T12:06:39.333Z,6.13
2023-03-18T12:09:25.362Z,6.57
2023-03-18T12:12:09.183Z,7.53
2023-03-18T12:15:08.472Z,6.47
2023-03-18T12:17:59.843Z,5.68
2023-03-18T12:20:57.450Z,6.47
2023-03-18T12:23:40.482Z,6.30
2023-03-18T12:26:28.743Z,6.00
2023-03-18T12:29:12.961Z,6.38
2023-03-18T12:31:49.202Z,6.32
2023-03-18T12:34:25.989Z,5.47
2023-03-18T12:37:16.692Z,7.13
2023-03-18T12:39:59.470Z,6.75
2023-03-18T12:42:29.819Z,7.03
2023-03-18T12:45:11.997Z,4.43
2023-03-18T12:48:15.180Z,5.40
2023-03-18T12:50:52.068Z,4.88
2023-03-18T12:53:31.292Z,4.55
2023-03-18T12:56:03.652Z,6.82
2023-03-18T12:58:48.996Z,4.40
2023-03-18T13:01:32.664Z,4.53
2023-03-18T13:04:06.193Z,4.47
2023-03-18T13:06:44.130Z,4.75
2023-03-18T13:09:40.943Z,3.13
2023-03-18T13:12:13.818Z,4.20
2023-03-18T13:14:59.784Z,3.90
2023-03-18T13:17:36.447Z,3.67
2023-03-18T13:20:24.138Z,3.03
2023-03-18T13:23:26.175Z,3.15
2023-03-18T13:26:04.828Z,3.30
2023-03-18T13:29:08.854Z,2.95
2023-03-18T13:32:19.626Z,4.45
2023-03-18T13:34:53.059Z,2.65
2023-03-18T13:37:59.398Z,3.88
2023-03-18T13:40:42.988Z,2.40
2023-03-18T13:43:16.562Z,2.30
2023-03-18T13:45:48.542Z,2.20
2023-03-18T13:48:18.837Z,2.28
2023-03-18T13:50:49.078Z,2.78
2023-03-18T13:53:42.323Z,2.40
2023-03-18T13:56:28.861Z,2.75
2023-03-18T13:58:56.477Z,2.00
2023-03-18T14:01:50.994Z,1.52
2023-03-18T14:04:50.372Z,1.40
2023-03-18T14:07:24.070Z,1.10
2023-03-18T14:10:15.359Z,1.42
2023-03-18T14:12:48.161Z,1.50
2023-03-18T14:15:16.035Z,2.13
2023-03-18T14:17:49.848Z,2.85
2023-03-18T14:20:20.077Z,1.42
2023-03-18T14:23:09.051Z,1.23
2023-03-18T14:26:02.312Z,1.75
2023-03-18T14:28:35.766Z,1.30
2023-03-18T14:31:26.027Z,2.28
2023-03-18T14:33:58.762Z,2.22
2023-03-18T14:36:55.837Z,1.25
2023-03-18T14:39:48.368Z,1.50
2023-03-18T14:42:42.213Z,2.72
2023-03-18T14:45:32.103Z,1.67
2023-03-18T14:48:05.697Z,1.20
2023-03-18T14:50:47.404Z,1.20
2023-03-18T14:53:23.433Z,2.08
2023-03-18T14:55:56.902Z,1.70
2023-03-18T14:58:25.162Z,1.70
2023-03-18T15:00:56.860Z,1.40
2023-03-18T15:03:28.064Z,1.15
2023-03-18T15:06:04.077Z,1.73
2023-03-18T15:08:47.767Z,1.40
2023-03-18T15:11:17.734Z,1.10
2023-03-18T15:13:45.713Z,1.45
2023-03-18T15:16:17.552Z,2.45
2023-03-18T15:18:47.320Z,1.25
2023-03-18T15:21:23.166Z,1.70
2023-03-18T15:23:57.708Z,2.08
2023-03-18T15:26:27.552Z,1.63
2023-03-18T15:29:00.457Z,1.45
2023-03-18T15:31:38.874Z,1.77
2023-03-18T15:34:30.001Z,1.55
2023-03-18T15:37:02.406Z,1.40
2023-03-18T15:39:36.243Z,34.40
2023-03-18T15:42:13.962Z,67.90
2023-03-18T15:44:42.961Z,153.65
2023-03-18T15:47:30.931Z,340.58
2023-03-18T15:50:15.290Z,163.50
2023-03-18T15:52:43.422Z,196.60
2023-03-18T15:55:31.442Z,230.85
2023-03-18T15:57:59.191Z,144.25
2023-03-18T16:00:27.112Z,70.18
2023-03-18T16:02:54.450Z,38.25
2023-03-18T16:05:28.222Z,31.95
2023-03-18T16:07:56.007Z,54.33
2023-03-18T16:10:26.553Z,25.63
2023-03-18T16:12:58.372Z,26.20
2023-03-18T16:15:26.804Z,36.35
2023-03-18T16:17:56.236Z,34.70
2023-03-18T16:20:29.518Z,26.15
2023-03-18T16:23:00.205Z,12.05
2023-03-18T16:25:28.228Z,10.43
2023-03-18T16:27:57.657Z,13.60
2023-03-18T16:30:30.363Z,4.80
2023-03-18T16:32:58.961Z,7.13
2023-03-18T16:35:34.784Z,3.55
2023-03-18T16:38:02.413Z,4.55
2023-03-18T16:40:31.943Z,2.97
2023-03-18T16:42:59.335Z,5.22
2023-03-18T16:45:33.356Z,3.17
2023-03-18T16:48:05.036Z,2.97
2023-03-18T16:50:37.855Z,3.00
2023-03-18T16:53:18.754Z,1.90
2023-03-18T16:59:01.667Z,1.73
2023-03-18T17:01:31.300Z,1.73
2023-03-18T17:03:58.640Z,1.83
2023-03-18T17:06:26.484Z,1.55
2023-03-18T17:08:56.918Z,2.10
2023-03-18T17:11:24.300Z,1.90
2023-03-18T17:13:52.231Z,1.80
2023-03-18T17:16:22.881Z,2.53
2023-03-18T17:18:50.022Z,2.92
2023-03-18T17:21:17.418Z,3.50
2023-03-18T17:23:46.000Z,3.38
2023-03-18T17:26:15.853Z,3.50
2023-03-18T17:28:46.020Z,3.10
2023-03-18T17:31:13.937Z,4.72
2023-03-18T17:33:41.397Z,8.75
2023-03-18T17:36:09.436Z,8.68
2023-03-18T17:38:36.974Z,9.02
2023-03-18T17:41:08.367Z,6.40
2023-03-18T17:43:37.029Z,6.72
2023-03-18T17:46:05.513Z,7.03
2023-03-18T17:48:35.291Z,4.85
2023-03-18T17:51:06.602Z,3.03
2023-03-18T17:53:43.209Z,2.75
2023-03-18T17:56:16.158Z,3.30
2023-03-18T17:58:45.971Z,2.95
2023-03-18T18:01:19.782Z,2.80
2023-03-18T18:03:48.141Z,2.45
2023-03-18T18:06:21.746Z,2.78
2023-03-18T18:08:50.051Z,2.60
2023-03-18T18:11:24.174Z,2.45
2023-03-18T18:13:54.107Z,2.40
2023-03-18T18:16:23.276Z,1.95
2023-03-18T18:18:51.234Z,2.80
2023-03-18T18:21:21.974Z,2.28
2023-03-18T18:23:49.538Z,1.60
2023-03-18T18:26:20.323Z,2.33
2023-03-18T18:28:50.621Z,2.28
2023-03-18T18:31:19.909Z,2.17
2023-03-18T18:33:50.414Z,3.25
2023-03-18T18:36:18.360Z,2.50
2023-03-18T18:38:46.004Z,2.92
2023-03-18T18:41:13.194Z,2.90
2023-03-18T18:43:40.291Z,2.80
2023-03-18T18:46:15.116Z,3.22
2023-03-18T18:48:47.493Z,3.85
2023-03-18T18:51:20.399Z,5.97
2023-03-18T18:53:48.299Z,6.28
2023-03-18T18:56:37.169Z,7.95
2023-03-18T18:59:27.092Z,8.85
2023-03-18T19:01:56.583Z,9.77
2023-03-18T19:04:24.417Z,13.18
2023-03-18T19:06:52.869Z,13.07
2023-03-18T19:09:26.135Z,9.95
2023-03-18T19:11:55.611Z,8.75
2023-03-18T19:14:25.584Z,8.80
2023-03-18T19:16:54.411Z,9.95
2023-03-18T19:19:25.696Z,10.13
2023-03-18T19:21:52.996Z,9.18
2023-03-18T19:24:32.502Z,9.95
2023-03-18T19:27:06.254Z,11.18
2023-03-18T19:29:33.545Z,14.68
2023-03-18T19:32:01.948Z,20.05
2023-03-18T19:34:32.515Z,19.90
2023-03-18T19:37:02.895Z,22.00
2023-03-18T19:39:30.255Z,22.70
2023-03-18T19:41:58.074Z,20.88
2023-03-18T19:44:27.437Z,27.92
2023-03-18T19:46:56.744Z,28.55
2023-03-18T19:49:26.609Z,43.45
2023-03-18T19:51:55.089Z,54.92
2023-03-18T19:54:33.914Z,49.88
2023-03-18T19:57:22.779Z,55.55
2023-03-18T19:59:51.566Z,45.50
2023-03-18T20:02:34.138Z,38.03
2023-03-18T20:05:17.126Z,33.38
2023-03-18T20:07:44.660Z,30.45
2023-03-18T20:10:14.218Z,27.40
2023-03-18T20:12:47.393Z,34.88
2023-03-18T20:15:22.792Z,44.00
2023-03-18T20:17:51.625Z,51.22
2023-03-18T20:20:27.341Z,50.20
2023-03-18T20:23:01.965Z,46.15
2023-03-18T20:25:36.010Z,37.05
2023-03-18T20:28:05.189Z,32.45
2023-03-18T20:30:39.259Z,32.30
2023-03-18T20:33:06.972Z,30.65
2023-03-18T20:35:40.661Z,24.30
2023-03-18T20:38:17.349Z,18.83
2023-03-18T20:40:47.882Z,17.40
2023-03-18T20:43:19.892Z,17.08
2023-03-18T20:45:47.135Z,15.95
2023-03-18T20:48:14.558Z,14.65
2023-03-18T20:50:42.113Z,10.23
2023-03-18T20:53:36.283Z,7.10
2023-03-18T20:56:05.164Z,9.13
2023-03-18T20:58:32.388Z,9.63
2023-03-18T21:00:59.663Z,7.97
2023-03-18T21:03:29.709Z,11.07
2023-03-18T21:05:59.022Z,10.75
2023-03-18T21:08:27.978Z,10.45
2023-03-18T21:10:58.549Z,8.75
2023-03-18T21:13:32.320Z,10.50
2023-03-18T21:16:00.923Z,9.05
2023-03-18T21:18:28.834Z,11.02
2023-03-18T21:20:56.964Z,12.85
2023-03-18T21:23:27.814Z,14.27
2023-03-18T21:25:55.750Z,12.45
2023-03-18T21:28:25.690Z,15.70
2023-03-18T21:30:56.228Z,16.23
2023-03-18T21:33:33.803Z,15.90
2023-03-18T21:36:02.082Z,15.63
2023-03-18T21:38:31.579Z,20.27
2023-03-18T21:41:01.038Z,19.35
2023-03-18T21:43:40.737Z,24.60
2023-03-18T21:46:13.643Z,20.63
2023-03-18T21:48:40.953Z,22.48
2023-03-18T21:51:19.988Z,21.75
2023-03-18T21:53:55.604Z,25.50
2023-03-18T21:56:23.965Z,28.02
2023-03-18T21:58:51.459Z,19.27
2023-03-18T22:01:27.578Z,14.80
2023-03-18T22:03:54.828Z,11.43
2023-03-18T22:06:22.465Z,11.68
2023-03-18T22:08:49.946Z,13.93
2023-03-18T22:11:20.184Z,11.52
2023-03-18T22:13:48.414Z,11.50
2023-03-18T22:16:18.085Z,10.23
2023-03-18T22:18:46.590Z,13.32
2023-03-18T22:21:21.321Z,11.38
2023-03-18T22:23:48.969Z,12.30
2023-03-18T22:26:18.522Z,12.85
2023-03-18T22:28:46.668Z,12.13
2023-03-18T22:31:22.989Z,11.63
2023-03-18T22:33:51.269Z,14.00
2023-03-18T22:36:21.863Z,12.95
2023-03-18T22:38:49.613Z,14.07
2023-03-18T22:41:29.508Z,12.57
2023-03-18T22:44:00.412Z,12.43
2023-03-18T22:46:28.764Z,15.57
2023-03-18T22:48:56.337Z,13.85
2023-03-18T22:51:35.419Z,12.20
2023-03-18T22:54:02.723Z,11.43
2023-03-18T22:56:32.616Z,11.35
2023-03-18T22:58:59.935Z,12.18
2023-03-18T23:01:30.013Z,11.93
2023-03-18T23:03:57.289Z,13.77
2023-03-18T23:06:25.036Z,11.48
2023-03-18T23:08:52.282Z,10.07
2023-03-18T23:11:19.585Z,9.93
2023-03-18T23:13:50.988Z,9.98
2023-03-18T23:16:21.166Z,12.13
2023-03-18T23:18:48.823Z,11.68
2023-03-18T23:21:22.097Z,11.93
2023-03-18T23:23:49.861Z,12.38
2023-03-18T23:26:17.573Z,11.95
2023-03-18T23:28:45.558Z,12.90
2023-03-18T23:31:14.840Z,12.82
2023-03-18T23:33:42.737Z,12.45
2023-03-18T23:36:10.514Z,13.50
2023-03-18T23:38:38.253Z,11.77
2023-03-18T23:41:06.332Z,14.32
2023-03-18T23:43:33.776Z,13.48
2023-03-18T23:46:02.084Z,12.80
2023-03-18T23:48:29.501Z,12.50
2023-03-18T23:50:57.137Z,11.85
2023-03-18T23:53:24.451Z,10.98
2023-03-18T23:55:51.727Z,11.68
2023-03-18T23:58:19.059Z,11.00
